Time;durP1;ratioP1;P1;durP2;ratioP2;P2;SDS_P1;SDS_P2;PMS_P1;PMS_P2;Temp;Humidity;BMP_temperature;BMP_pressure;BME280_temperature;BME280_humidity;BME280_pressure;Samples;Min_cycle;Max_cycle;Signal;HPM_P1;HPM_P2
2023/08/02 00:01:24;;;;;;;7.97;2.38;;;17.40;99.90;;;;;;5022411;28;20091;-81
2023/08/02 00:03:49;;;;;;;6.38;2.65;;;17.50;99.80;;;;;;5019779;28;20474;-81
2023/08/02 00:06:17;;;;;;;9.80;2.88;;;17.50;99.80;;;;;;5023821;28;20025;-84
2023/08/02 00:08:42;;;;;;;10.18;2.25;;;17.40;99.90;;;;;;5003990;28;20160;-84
2023/08/02 00:11:18;;;;;;;8.70;2.17;;;17.30;99.90;;;;;;5021959;28;20105;-81
2023/08/02 00:13:44;;;;;;;9.52;2.22;;;17.20;99.90;;;;;;5019691;28;20030;-83
2023/08/02 00:16:10;;;;;;;3.83;2.30;;;17.30;99.90;;;;;;5001739;28;20048;-82
2023/08/02 00:18:36;;;;;;;8.30;2.10;;;17.20;99.90;;;;;;5018506;28;20021;-84
2023/08/02 00:21:05;;;;;;;4.53;2.20;;;17.20;99.90;;;;;;5023121;28;20484;-83
2023/08/02 00:23:33;;;;;;;9.55;2.55;;;17.30;99.90;;;;;;5023162;28;20485;-83
2023/08/02 00:25:59;;;;;;;13.45;2.75;;;17.40;99.90;;;;;;5010575;28;20048;-83
2023/08/02 00:28:24;;;;;;;5.47;1.63;;;17.40;99.90;;;;;;5024815;28;20018;-84
2023/08/02 00:30:50;;;;;;;3.55;1.80;;;17.40;99.90;;;;;;5017313;28;20029;-82
2023/08/02 00:33:16;;;;;;;5.05;1.95;;;17.30;99.90;;;;;;5020711;28;20080;-83
2023/08/02 00:35:46;;;;;;;5.30;1.92;;;17.30;99.90;;;;;;5019725;28;20445;-83
2023/08/02 00:38:11;;;;;;;4.97;2.03;;;17.40;99.90;;;;;;5003134;28;20028;-83
2023/08/02 00:40:38;;;;;;;9.48;2.45;;;17.20;99.90;;;;;;5017153;28;20038;-83
2023/08/02 00:43:06;;;;;;;9.23;2.53;;;17.20;99.90;;;;;;5020968;28;20068;-82
2023/08/02 00:45:32;;;;;;;9.55;2.42;;;17.10;99.90;;;;;;5019272;28;20424;-83
2023/08/02 00:47:58;;;;;;;4.45;2.35;;;17.10;99.90;;;;;;5021439;28;20034;-80
2023/08/02 00:50:29;;;;;;;6.30;2.13;;;17.10;99.90;;;;;;5021202;28;20464;-82
2023/08/02 00:52:55;;;;;;;6.35;1.83;;;17.20;99.90;;;;;;5020832;28;20072;-83
2023/08/02 00:55:21;;;;;;;5.25;1.90;;;17.10;99.90;;;;;;5020862;28;20022;-82
2023/08/02 00:57:47;;;;;;;10.70;2.70;;;17.20;99.90;;;;;;5014040;28;20017;-83
2023/08/02 01:00:15;;;;;;;8.70;1.80;;;17.30;99.90;;;;;;5016439;28;20033;-83
2023/08/02 01:02:41;;;;;;;6.63;2.03;;;17.20;99.90;;;;;;4998941;28;20108;-83
2023/08/02 01:05:09;;;;;;;8.20;1.92;;;17.10;99.90;;;;;;5021080;28;20116;-83
2023/08/02 01:07:47;;;;;;;4.25;3.25;;;17.10;99.90;;;;;;5017741;28;20022;-83
2023/08/02 01:10:25;;;;;;;2.65;1.52;;;16.90;99.90;;;;;;5017083;28;20050;-83
2023/08/02 01:12:56;;;;;;;8.38;2.10;;;16.90;99.90;;;;;;5020586;28;20018;-83
2023/08/02 01:15:23;;;;;;;6.13;1.90;;;16.70;99.90;;;;;;5008249;28;20473;-83
2023/08/02 01:17:50;;;;;;;4.93;2.10;;;16.80;99.90;;;;;;5009215;28;20029;-82
2023/08/02 01:20:16;;;;;;;8.93;1.95;;;16.80;99.90;;;;;;5019840;28;20025;-80
2023/08/02 01:22:42;;;;;;;4.32;2.28;;;16.80;99.90;;;;;;5016827;28;20033;-83
2023/08/02 01:25:08;;;;;;;8.30;2.08;;;16.90;99.90;;;;;;5018699;28;20105;-82
2023/08/02 01:27:43;;;;;;;4.88;2.22;;;16.90;99.90;;;;;;5018662;28;20064;-82
2023/08/02 01:30:15;;;;;;;6.03;1.95;;;16.80;99.90;;;;;;5020190;28;20427;-82
2023/08/02 01:32:41;;;;;;;3.97;1.70;;;16.80;99.90;;;;;;5023102;28;20045;-83
2023/08/02 01:35:08;;;;;;;7.32;2.20;;;16.80;99.90;;;;;;5005263;28;20389;-83
2023/08/02 01:37:37;;;;;;;6.30;1.90;;;16.70;99.90;;;;;;5020842;28;20105;-82
2023/08/02 01:40:04;;;;;;;6.70;3.10;;;16.70;99.90;;;;;;4998112;28;20064;-83
2023/08/02 01:42:30;;;;;;;6.32;2.00;;;16.70;99.90;;;;;;5017551;28;20100;-82
2023/08/02 01:45:00;;;;;;;3.63;1.95;;;16.60;99.90;;;;;;5005469;28;20685;-82
2023/08/02 01:47:26;;;;;;;6.05;2.58;;;16.50;99.90;;;;;;5012845;28;20017;-82
2023/08/02 01:49:54;;;;;;;4.07;1.92;;;16.50;99.90;;;;;;5001534;28;20025;-82
2023/08/02 01:52:19;;;;;;;8.07;1.85;;;16.60;99.90;;;;;;5018304;28;20445;-82
2023/08/02 01:54:47;;;;;;;8.95;1.92;;;16.60;99.90;;;;;;5012880;28;20057;-83
2023/08/02 01:57:13;;;;;;;7.65;2.30;;;16.60;99.90;;;;;;5018033;28;20111;-83
2023/08/02 01:59:39;;;;;;;4.18;2.03;;;16.60;99.90;;;;;;5017971;28;20431;-82
2023/08/02 02:02:06;;;;;;;4.30;2.53;;;16.60;99.90;;;;;;5017636;28;20026;-81
2023/08/02 02:04:32;;;;;;;6.93;2.28;;;16.60;99.90;;;;;;5020172;28;20404;-82
2023/08/02 02:06:57;;;;;;;4.53;1.88;;;16.60;99.90;;;;;;5017539;28;20022;-82
2023/08/02 02:09:23;;;;;;;7.93;2.00;;;16.60;99.90;;;;;;5018244;28;20026;-82
2023/08/02 02:11:49;;;;;;;5.97;1.73;;;16.60;99.90;;;;;;5008330;28;20408;-83
2023/08/02 02:14:15;;;;;;;4.00;1.90;;;16.60;99.90;;;;;;5016769;28;20109;-82
2023/08/02 02:16:40;;;;;;;8.70;2.10;;;16.60;99.90;;;;;;5020063;28;20025;-81
2023/08/02 02:19:06;;;;;;;10.85;1.92;;;16.70;99.90;;;;;;4997702;28;20123;-82
2023/08/02 02:21:31;;;;;;;5.63;1.88;;;16.60;99.90;;;;;;5020334;28;20029;-82
2023/08/02 02:23:57;;;;;;;11.90;2.60;;;16.70;99.90;;;;;;5018342;28;20028;-82
2023/08/02 02:26:25;;;;;;;4.55;1.75;;;16.70;99.90;;;;;;5019344;28;20029;-82
2023/08/02 02:28:52;;;;;;;5.78;2.13;;;16.70;99.90;;;;;;4998781;28;20030;-82
2023/08/02 02:31:18;;;;;;;4.60;1.70;;;16.60;99.90;;;;;;5006966;28;20029;-82
2023/08/02 02:33:44;;;;;;;6.30;2.20;;;16.60;99.90;;;;;;5016054;28;20033;-82
2023/08/02 02:36:09;;;;;;;7.35;2.53;;;16.70;99.90;;;;;;5016065;28;20104;-82
2023/08/02 02:38:37;;;;;;;4.95;2.38;;;16.60;99.90;;;;;;5018914;28;20018;-83
2023/08/02 02:41:05;;;;;;;8.55;2.50;;;16.70;99.90;;;;;;5018696;28;20109;-84
2023/08/02 02:43:32;;;;;;;11.65;2.95;;;16.70;99.90;;;;;;5015904;28;20681;-83
2023/08/02 02:45:58;;;;;;;8.52;2.38;;;16.70;99.90;;;;;;5014526;28;20034;-83
2023/08/02 02:48:24;;;;;;;4.45;2.30;;;16.70;99.90;;;;;;5017746;28;20478;-84
2023/08/02 02:50:49;;;;;;;4.88;1.95;;;16.60;99.90;;;;;;5016783;28;20034;-83
2023/08/02 02:53:20;;;;;;;5.32;2.05;;;16.60;99.90;;;;;;5013139;28;20085;-83
2023/08/02 02:55:46;;;;;;;6.10;2.05;;;16.70;99.90;;;;;;5016690;28;20084;-81
2023/08/02 02:58:11;;;;;;;4.95;2.10;;;16.80;99.90;;;;;;5018796;28;20025;-84
2023/08/02 03:00:37;;;;;;;7.93;2.25;;;16.80;99.90;;;;;;5001756;28;20497;-84
2023/08/02 03:03:03;;;;;;;472.73;239.50;;;17.00;99.90;;;;;;5017247;28;20021;-82
2023/08/02 03:05:29;;;;;;;8.30;3.35;;;17.10;99.90;;;;;;5015083;28;20044;-82
2023/08/02 03:07:55;;;;;;;37.28;13.77;;;17.10;99.90;;;;;;5017288;28;20034;-82
2023/08/02 03:10:20;;;;;;;9.23;2.13;;;17.10;99.90;;;;;;5017727;28;20673;-82
2023/08/02 03:12:46;;;;;;;7.03;1.70;;;17.20;99.90;;;;;;5020282;28;20105;-83
2023/08/02 03:15:14;;;;;;;6.88;2.28;;;17.30;99.90;;;;;;5019233;28;20056;-83
2023/08/02 03:17:39;;;;;;;6.47;1.85;;;17.30;99.90;;;;;;4998874;28;20810;-83
2023/08/02 03:20:06;;;;;;;7.43;2.15;;;17.20;99.90;;;;;;5010703;28;20076;-83
2023/08/02 03:22:33;;;;;;;8.43;2.63;;;17.20;99.90;;;;;;5019872;28;20033;-84
2023/08/02 03:25:01;;;;;;;6.68;2.22;;;17.10;99.90;;;;;;5014616;28;20041;-85
2023/08/02 03:27:29;;;;;;;5.55;2.10;;;17.10;99.90;;;;;;4999130;28;20141;-82
2023/08/02 03:29:56;;;;;;;9.63;2.75;;;17.00;99.90;;;;;;4999996;28;20063;-83
2023/08/02 03:32:21;;;;;;;5.95;2.47;;;17.00;99.90;;;;;;5015043;28;20014;-77
2023/08/02 03:34:47;;;;;;;7.13;2.70;;;17.00;99.90;;;;;;5014159;28;20448;-76
2023/08/02 03:37:12;;;;;;;5.97;2.28;;;17.10;99.90;;;;;;5000326;28;20025;-77
2023/08/02 03:39:38;;;;;;;7.13;2.42;;;17.20;99.90;;;;;;5015815;28;20806;-77
2023/08/02 03:42:04;;;;;;;7.35;2.38;;;17.20;99.90;;;;;;5015365;28;20032;-77
2023/08/02 03:44:30;;;;;;;6.50;2.03;;;17.10;99.90;;;;;;5020653;28;20029;-77
2023/08/02 03:46:55;;;;;;;6.47;2.00;;;17.20;99.90;;;;;;5015117;28;20585;-77
2023/08/02 03:49:22;;;;;;;6.65;2.40;;;17.20;99.90;;;;;;5014389;28;20057;-76
2023/08/02 03:51:50;;;;;;;10.27;2.45;;;17.30;99.90;;;;;;5004168;28;20030;-77
2023/08/02 03:54:16;;;;;;;12.40;2.80;;;17.20;99.90;;;;;;5017219;28;20547;-77
2023/08/02 03:56:41;;;;;;;8.55;3.00;;;17.30;99.90;;;;;;5001791;28;20037;-77
2023/08/02 03:59:07;;;;;;;7.28;2.50;;;17.20;99.90;;;;;;4999822;28;20128;-76
2023/08/02 04:01:35;;;;;;;7.80;2.42;;;17.10;99.90;;;;;;4996618;28;20079;-76
2023/08/02 04:04:00;;;;;;;9.23;1.90;;;17.10;99.90;;;;;;4996826;28;20128;-77
2023/08/02 04:06:26;;;;;;;11.40;2.40;;;17.10;99.90;;;;;;5012844;28;20110;-77
2023/08/02 04:08:53;;;;;;;4.97;2.03;;;17.00;99.90;;;;;;5009823;28;20572;-77
2023/08/02 04:11:19;;;;;;;12.43;2.30;;;17.00;99.90;;;;;;5018058;28;20034;-84
2023/08/02 04:13:45;;;;;;;9.65;1.95;;;16.90;99.90;;;;;;5000885;28;20029;-76
2023/08/02 04:16:11;;;;;;;8.13;2.25;;;16.90;99.90;;;;;;5017906;28;20038;-76
2023/08/02 04:18:41;;;;;;;8.15;2.20;;;16.70;99.90;;;;;;4994491;28;20058;-78
2023/08/02 04:21:06;;;;;;;5.82;2.13;;;16.60;99.90;;;;;;5002250;28;20026;-76
2023/08/02 04:23:32;;;;;;;5.18;2.60;;;16.60;99.90;;;;;;5018518;28;20022;-76
2023/08/02 04:25:57;;;;;;;8.43;2.22;;;16.40;99.90;;;;;;5011524;28;20041;-76
2023/08/02 04:28:25;;;;;;;8.05;2.85;;;16.30;99.90;;;;;;5019286;28;20252;-76
2023/08/02 04:30:51;;;;;;;12.02;2.55;;;16.30;99.90;;;;;;5017413;28;20072;-76
2023/08/02 04:33:18;;;;;;;5.13;2.45;;;16.40;99.90;;;;;;5016439;28;20424;-76
2023/08/02 04:35:44;;;;;;;8.07;2.75;;;16.50;99.90;;;;;;5022412;28;20059;-76
2023/08/02 04:38:11;;;;;;;7.93;2.50;;;16.60;99.90;;;;;;5020852;28;20029;-76
2023/08/02 04:40:40;;;;;;;6.95;2.42;;;16.70;99.90;;;;;;5019459;28;20375;-77
2023/08/02 04:43:06;;;;;;;6.60;2.67;;;16.70;99.90;;;;;;5022902;28;20026;-76
2023/08/02 04:45:31;;;;;;;7.40;2.80;;;16.70;99.90;;;;;;5022004;28;20382;-76
2023/08/02 04:47:59;;;;;;;7.35;2.55;;;16.60;99.90;;;;;;5022082;28;20075;-77
2023/08/02 04:50:25;;;;;;;8.20;2.38;;;16.70;99.90;;;;;;5004442;28;20053;-76
2023/08/02 04:52:51;;;;;;;11.75;2.67;;;16.70;99.90;;;;;;5016411;28;20037;-76
2023/08/02 04:55:16;;;;;;;4.72;2.83;;;16.80;99.90;;;;;;5001702;28;20040;-77
2023/08/02 04:57:44;;;;;;;3.83;2.38;;;16.80;99.90;;;;;;5023093;28;20026;-76
2023/08/02 05:00:10;;;;;;;7.68;2.88;;;16.80;99.90;;;;;;5020539;28;20034;-76
2023/08/02 05:02:36;;;;;;;10.93;3.55;;;16.90;99.90;;;;;;5020137;28;20026;-76
2023/08/02 05:05:04;;;;;;;7.90;2.75;;;16.90;99.90;;;;;;5019880;28;20034;-76
2023/08/02 05:07:34;;;;;;;8.52;3.08;;;16.90;99.90;;;;;;5020500;28;20026;-77
2023/08/02 05:10:04;;;;;;;10.20;2.67;;;17.00;99.90;;;;;;5023362;28;20036;-77
2023/08/02 05:12:39;;;;;;;12.43;3.92;;;17.00;99.90;;;;;;5001334;28;20029;-76
2023/08/02 05:15:06;;;;;;;9.23;3.30;;;17.10;99.90;;;;;;5023016;28;20025;-77
2023/08/02 05:17:31;;;;;;;8.32;2.90;;;17.10;99.90;;;;;;5018752;28;20522;-77
2023/08/02 05:19:57;;;;;;;9.63;3.28;;;17.10;99.90;;;;;;5017955;28;20045;-83
2023/08/02 05:22:26;;;;;;;10.68;3.38;;;17.20;99.90;;;;;;5016558;28;20056;-82
2023/08/02 05:24:52;;;;;;;6.80;2.70;;;17.20;99.90;;;;;;5010479;28;20100;-82
2023/08/02 05:27:18;;;;;;;10.40;3.60;;;17.30;99.90;;;;;;5002857;28;20032;-84
2023/08/02 05:29:44;;;;;;;5.32;2.95;;;17.30;99.90;;;;;;5003275;28;20037;-83
2023/08/02 05:32:10;;;;;;;9.98;3.42;;;17.30;99.90;;;;;;5018686;28;20067;-83
2023/08/02 05:34:36;;;;;;;9.95;3.45;;;17.40;99.90;;;;;;5020565;28;20069;-83
2023/08/02 05:37:01;;;;;;;5.93;3.20;;;17.40;99.90;;;;;;5019793;28;20017;-83
2023/08/02 05:39:27;;;;;;;10.30;3.42;;;17.40;99.90;;;;;;5018692;28;20044;-83
2023/08/02 05:41:52;;;;;;;6.32;2.97;;;17.40;99.90;;;;;;5001708;28;20084;-83
2023/08/02 05:44:18;;;;;;;5.75;2.88;;;17.40;99.90;;;;;;5020705;28;20052;-82
2023/08/02 05:46:44;;;;;;;10.15;3.28;;;17.50;99.90;;;;;;5024835;28;20116;-83
2023/08/02 05:49:09;;;;;;;14.38;3.03;;;17.50;99.90;;;;;;5017056;28;20068;-83
2023/08/02 05:51:35;;;;;;;10.35;3.40;;;17.50;99.90;;;;;;5017561;28;20036;-84
2023/08/02 05:54:01;;;;;;;8.77;3.78;;;17.60;99.90;;;;;;5018003;28;20025;-83
2023/08/02 05:56:28;;;;;;;20.42;3.92;;;17.60;99.90;;;;;;5019590;28;20018;-84
2023/08/02 05:58:56;;;;;;;10.48;3.97;;;17.60;99.90;;;;;;5019328;28;20022;-84
2023/08/02 06:01:22;;;;;;;9.20;3.15;;;17.70;99.90;;;;;;5006116;28;20397;-82
2023/08/02 06:03:50;;;;;;;9.55;3.80;;;17.70;99.90;;;;;;5021931;28;20022;-83
2023/08/02 06:06:16;;;;;;;12.07;3.25;;;17.70;99.90;;;;;;5013277;28;20498;-83
2023/08/02 06:08:43;;;;;;;10.50;3.33;;;17.70;99.90;;;;;;5023390;28;20030;-83
2023/08/02 06:11:11;;;;;;;13.85;3.67;;;17.60;99.90;;;;;;5009394;28;20048;-83
2023/08/02 06:13:36;;;;;;;9.98;3.60;;;17.60;99.90;;;;;;5019627;28;20026;-84
2023/08/02 06:16:02;;;;;;;15.32;3.92;;;17.50;99.90;;;;;;5023139;28;20061;-83
2023/08/02 06:18:28;;;;;;;8.82;3.33;;;17.60;99.90;;;;;;5019478;28;20701;-83
2023/08/02 06:20:54;;;;;;;12.82;3.45;;;17.70;99.90;;;;;;5007593;28;20839;-84
2023/08/02 06:23:20;;;;;;;6.55;3.58;;;17.60;99.90;;;;;;5016918;28;20501;-83
2023/08/02 06:25:46;;;;;;;13.10;3.13;;;17.80;99.90;;;;;;5016804;28;20088;-83
2023/08/02 06:28:11;;;;;;;4.95;3.35;;;17.80;99.90;;;;;;5016004;28;20372;-81
2023/08/02 06:30:39;;;;;;;7.38;3.38;;;17.70;99.90;;;;;;5022190;28;20022;-82
2023/08/02 06:33:05;;;;;;;8.98;3.42;;;17.80;99.90;;;;;;5016795;28;20034;-83
2023/08/02 06:35:30;;;;;;;11.75;3.20;;;17.90;99.90;;;;;;5016033;28;20072;-82
2023/08/02 06:37:56;;;;;;;8.95;3.55;;;17.80;99.90;;;;;;5005811;28;20064;-83
2023/08/02 06:40:21;;;;;;;11.02;3.28;;;17.80;99.90;;;;;;5022443;28;20045;-83
2023/08/02 06:42:47;;;;;;;8.93;3.92;;;17.90;99.90;;;;;;5018622;28;20025;-76
2023/08/02 06:45:13;;;;;;;17.88;3.83;;;17.90;99.90;;;;;;5017952;28;20104;-83
2023/08/02 06:47:38;;;;;;;7.85;3.63;;;17.90;99.90;;;;;;5016570;28;20076;-83
2023/08/02 06:50:04;;;;;;;12.90;4.45;;;17.80;99.90;;;;;;5020638;28;20021;-85
2023/08/02 06:52:30;;;;;;;11.15;4.82;;;17.90;99.90;;;;;;5017973;28;20464;-83
2023/08/02 06:54:56;;;;;;;8.90;3.70;;;18.00;99.90;;;;;;5012766;28;20216;-83
2023/08/02 06:57:24;;;;;;;8.13;3.90;;;17.80;99.90;;;;;;5019125;28;20048;-82
2023/08/02 06:59:51;;;;;;;8.80;3.78;;;17.80;99.90;;;;;;5020568;28;20564;-83
2023/08/02 07:02:16;;;;;;;9.23;3.22;;;17.90;99.90;;;;;;5014741;28;20462;-84
2023/08/02 07:04:45;;;;;;;12.70;3.10;;;18.00;99.90;;;;;;5012787;28;20032;-83
2023/08/02 07:07:10;;;;;;;9.88;3.40;;;18.00;99.90;;;;;;5016302;28;20060;-82
2023/08/02 07:09:36;;;;;;;9.05;3.80;;;18.10;99.90;;;;;;5007634;28;20049;-82
2023/08/02 07:12:01;;;;;;;11.15;3.70;;;18.10;99.90;;;;;;5017520;28;20454;-83
2023/08/02 07:14:27;;;;;;;7.82;3.45;;;18.10;99.90;;;;;;5018192;28;20022;-82
2023/08/02 07:16:53;;;;;;;10.07;3.72;;;18.20;99.90;;;;;;5019746;28;20433;-84
2023/08/02 07:19:24;;;;;;;8.80;3.97;;;18.10;99.90;;;;;;5016046;28;20021;-82
2023/08/02 07:21:50;;;;;;;9.95;4.40;;;18.30;99.90;;;;;;5017363;28;20037;-84
2023/08/02 07:24:17;;;;;;;8.48;4.88;;;18.10;99.90;;;;;;5002919;28;20041;-83
2023/08/02 07:26:43;;;;;;;10.38;5.13;;;18.00;99.90;;;;;;5016698;28;20077;-83
2023/08/02 07:29:08;;;;;;;11.02;5.85;;;17.90;99.90;;;;;;5017258;28;20113;-84
2023/08/02 07:31:35;;;;;;;8.15;5.32;;;18.10;99.90;;;;;;5019494;28;20022;-83
2023/08/02 07:34:03;;;;;;;12.50;5.50;;;18.20;99.90;;;;;;5013839;28;20942;-85
2023/08/02 07:36:31;;;;;;;6.05;5.22;;;18.20;99.90;;;;;;5020365;28;20021;-85
2023/08/02 07:38:57;;;;;;;10.02;5.43;;;18.00;99.90;;;;;;5017971;28;20092;-84
2023/08/02 07:41:23;;;;;;;7.20;5.10;;;18.10;99.90;;;;;;5018970;28;20607;-84
2023/08/02 07:43:51;;;;;;;9.88;4.70;;;18.00;99.90;;;;;;5014114;28;20030;-82
2023/08/02 07:46:18;;;;;;;8.27;4.82;;;18.20;99.90;;;;;;5018373;28;20029;-80
2023/08/02 07:48:44;;;;;;;9.75;5.07;;;18.00;99.90;;;;;;5018506;28;20025;-85
2023/08/02 07:51:09;;;;;;;5.65;4.90;;;18.00;99.90;;;;;;5017325;28;20037;-84
2023/08/02 07:53:35;;;;;;;10.07;5.32;;;17.90;99.90;;;;;;5019426;28;20026;-84
2023/08/02 07:56:02;;;;;;;11.23;6.10;;;18.00;99.90;;;;;;5019414;28;20021;-84
2023/08/02 07:58:27;;;;;;;9.45;5.70;;;18.00;99.90;;;;;;5020910;28;20053;-83
2023/08/02 08:00:55;;;;;;;8.93;4.70;;;18.10;99.90;;;;;;5017370;28;20115;-85
2023/08/02 08:03:21;;;;;;;5.72;4.40;;;18.10;99.90;;;;;;5020507;28;20386;-83
2023/08/02 08:05:49;;;;;;;6.28;4.30;;;18.20;99.90;;;;;;5003476;28;20029;-84
2023/08/02 08:08:15;;;;;;;7.78;4.30;;;18.20;99.90;;;;;;5017847;28;20025;-84
2023/08/02 08:10:43;;;;;;;5.95;4.65;;;18.20;99.90;;;;;;5020474;28;20478;-84
2023/08/02 08:13:08;;;;;;;5.28;3.63;;;18.20;99.90;;;;;;5020076;28;20034;-85
2023/08/02 08:15:34;;;;;;;9.18;5.07;;;18.10;99.90;;;;;;5023316;28;20476;-84
2023/08/02 08:17:59;;;;;;;5.70;4.07;;;18.10;99.90;;;;;;5025856;28;20473;-85
2023/08/02 08:20:25;;;;;;;5.38;3.92;;;18.00;99.90;;;;;;5022986;28;20109;-82
2023/08/02 08:22:51;;;;;;;7.75;3.60;;;18.00;99.90;;;;;;5014802;28;20521;-83
2023/08/02 08:25:18;;;;;;;4.97;3.70;;;18.00;99.90;;;;;;5016852;28;20112;-83
2023/08/02 08:27:47;;;;;;;4.57;4.00;;;18.10;99.90;;;;;;5020598;28;20029;-83
2023/08/02 08:30:12;;;;;;;6.53;4.32;;;18.10;99.90;;;;;;5011548;28;20025;-83
2023/08/02 08:32:40;;;;;;;8.35;3.90;;;18.20;99.90;;;;;;5021268;28;20026;-83
2023/08/02 08:35:09;;;;;;;6.90;4.60;;;18.20;99.90;;;;;;5009993;28;20725;-83
2023/08/02 08:37:34;;;;;;;6.50;3.78;;;18.20;99.90;;;;;;5007347;28;20041;-84
2023/08/02 08:40:00;;;;;;;4.80;3.58;;;18.20;99.90;;;;;;5022313;28;20393;-84
2023/08/02 08:42:28;;;;;;;5.53;3.72;;;18.10;99.90;;;;;;5019504;28;20476;-84
2023/08/02 08:44:56;;;;;;;4.20;3.90;;;18.20;99.90;;;;;;5019107;28;20080;-83
2023/08/02 08:47:24;;;;;;;5.45;3.28;;;18.30;99.90;;;;;;5020960;28;20036;-82
2023/08/02 08:49:49;;;;;;;2.70;2.50;;;18.20;99.90;;;;;;5020267;28;20404;-83
2023/08/02 08:52:17;;;;;;;4.88;2.00;;;18.30;99.90;;;;;;5008946;28;20047;-83
2023/08/02 08:54:44;;;;;;;8.10;2.13;;;18.20;99.90;;;;;;5020440;28;20030;-83
2023/08/02 08:57:10;;;;;;;2.42;1.88;;;18.30;99.90;;;;;;5019977;28;20136;-83
2023/08/02 08:59:37;;;;;;;4.95;1.88;;;18.30;99.90;;;;;;5019987;28;20088;-82
2023/08/02 09:02:05;;;;;;;4.70;2.28;;;18.40;99.90;;;;;;5017884;28;20037;-83
2023/08/02 09:04:32;;;;;;;3.75;2.30;;;18.40;99.90;;;;;;5001895;28;20728;-79
2023/08/02 09:06:57;;;;;;;3.30;1.92;;;18.50;99.90;;;;;;5004648;28;20593;-82
2023/08/02 09:09:23;;;;;;;3.55;2.20;;;18.60;99.90;;;;;;5013715;28;20478;-84
2023/08/02 09:11:51;;;;;;;5.47;2.22;;;18.60;99.90;;;;;;5019977;28;20052;-81
2023/08/02 09:14:17;;;;;;;4.05;2.25;;;18.50;99.90;;;;;;4997776;28;20037;-82
2023/08/02 09:17:01;;;;;;;7.05;2.42;;;18.50;99.90;;;;;;5016971;28;20113;-82
2023/08/02 09:19:36;;;;;;;4.28;2.60;;;18.50;99.90;;;;;;5020005;28;20041;-81
2023/08/02 09:22:08;;;;;;;2.63;2.30;;;18.50;99.90;;;;;;5023280;28;20508;-84
2023/08/02 09:24:38;;;;;;;3.05;2.67;;;18.50;99.90;;;;;;5005526;28;20056;-84
2023/08/02 09:27:14;;;;;;;6.38;2.88;;;18.50;99.90;;;;;;5019846;28;20121;-84
2023/08/02 09:29:44;;;;;;;3.53;2.45;;;18.50;99.90;;;;;;5023038;28;20025;-84
2023/08/02 09:32:10;;;;;;;3.28;2.55;;;18.60;99.90;;;;;;5019088;28;20037;-84
2023/08/02 09:34:47;;;;;;;6.43;2.72;;;18.60;99.90;;;;;;5018728;28;20033;-84
2023/08/02 09:37:17;;;;;;;3.42;2.92;;;18.60;99.90;;;;;;5018453;28;20022;-83
2023/08/02 09:39:50;;;;;;;8.88;2.85;;;18.50;99.90;;;;;;5020271;28;20056;-83
2023/08/02 09:42:21;;;;;;;;;;;18.60;99.90;;;;;;5001304;28;20065;-80
2023/08/02 09:44:51;;;;;;;3.50;3.08;;;18.60;99.90;;;;;;5021779;28;19955;-84
2023/08/02 09:47:18;;;;;;;3.75;3.45;;;18.60;99.90;;;;;;5018383;28;20033;-81
2023/08/02 09:49:44;;;;;;;3.58;3.28;;;18.40;99.90;;;;;;5019004;28;20531;-81
2023/08/02 09:52:10;;;;;;;3.35;3.05;;;18.50;99.90;;;;;;5020859;28;20136;-82
2023/08/02 09:54:35;;;;;;;3.30;3.00;;;18.40;99.90;;;;;;5019337;28;20032;-82
2023/08/02 09:57:04;;;;;;;4.13;3.53;;;18.40;99.90;;;;;;5012562;28;20026;-82
2023/08/02 09:59:34;;;;;;;3.45;3.15;;;18.50;99.90;;;;;;5020568;28;20572;-83
2023/08/02 10:02:01;;;;;;;3.67;3.10;;;18.60;99.90;;;;;;5017803;28;20021;-82
2023/08/02 10:04:30;;;;;;;2.60;2.40;;;18.70;99.90;;;;;;5020321;28;20021;-82
2023/08/02 10:07:03;;;;;;;2.50;2.30;;;18.70;99.90;;;;;;5019958;28;20044;-79
2023/08/02 10:09:34;;;;;;;3.92;2.47;;;18.80;99.90;;;;;;5001289;28;20132;-82
2023/08/02 10:12:17;;;;;;;7.00;2.40;;;18.70;99.90;;;;;;5005868;28;20044;-80
2023/08/02 10:14:43;;;;;;;2.65;2.45;;;18.70;99.90;;;;;;4999213;28;20040;-83
2023/08/02 10:17:09;;;;;;;2.65;2.45;;;18.80;99.90;;;;;;5018692;28;20117;-82
2023/08/02 10:19:35;;;;;;;4.82;2.60;;;18.90;99.90;;;;;;5017274;28;20541;-83
2023/08/02 10:22:04;;;;;;;5.78;3.05;;;19.10;99.90;;;;;;5012808;28;20060;-83
2023/08/02 10:24:30;;;;;;;3.28;2.55;;;19.20;99.90;;;;;;4997523;28;20048;-82
2023/08/02 10:27:03;;;;;;;3.17;2.97;;;19.10;99.90;;;;;;5015684;28;20493;-83
2023/08/02 10:29:32;;;;;;;3.20;2.90;;;19.10;99.90;;;;;;5012981;28;20029;-83
2023/08/02 10:32:09;;;;;;;3.95;3.08;;;19.20;99.90;;;;;;5008123;28;20026;-82
2023/08/02 10:34:35;;;;;;;3.78;3.15;;;19.30;99.90;;;;;;5018374;28;20036;-84
2023/08/02 10:37:03;;;;;;;3.17;2.88;;;19.50;99.90;;;;;;5020208;28;20025;-83
2023/08/02 10:39:50;;;;;;;3.55;3.25;;;19.40;99.90;;;;;;4999425;28;20409;-83
2023/08/02 10:42:26;;;;;;;3.58;2.80;;;19.50;99.90;;;;;;5003000;28;20386;-84
2023/08/02 10:44:55;;;;;;;3.47;2.78;;;19.80;99.90;;;;;;5018833;28;20029;-83
2023/08/02 10:47:33;;;;;;;3.10;2.90;;;20.00;99.90;;;;;;4998958;28;20022;-84
2023/08/02 10:50:04;;;;;;;2.80;2.38;;;20.40;99.90;;;;;;5001950;28;20440;-83
2023/08/02 10:52:41;;;;;;;3.72;2.25;;;20.20;99.90;;;;;;5005392;28;20041;-84
2023/08/02 10:55:10;;;;;;;2.25;2.03;;;20.40;99.90;;;;;;5005077;28;20156;-83
2023/08/02 10:57:37;;;;;;;2.65;2.38;;;20.50;99.90;;;;;;4997871;28;20033;-83
2023/08/02 11:00:22;;;;;;;2.75;2.50;;;20.60;99.90;;;;;;5018943;28;20021;-83
2023/08/02 11:02:49;;;;;;;2.78;2.33;;;20.70;99.90;;;;;;5018214;28;20025;-84
2023/08/02 11:05:35;;;;;;;2.45;2.25;;;20.80;99.90;;;;;;4998673;28;20021;-83
2023/08/02 11:08:02;;;;;;;2.50;2.30;;;20.70;99.90;;;;;;5005281;28;20023;-82
2023/08/02 11:10:28;;;;;;;2.45;2.30;;;20.70;99.90;;;;;;4997362;28;20022;-83
2023/08/02 11:12:54;;;;;;;2.50;2.30;;;20.50;99.90;;;;;;4979205;28;20077;-83
2023/08/02 11:15:21;;;;;;;3.08;2.28;;;20.40;99.90;;;;;;4996837;28;20085;-83
2023/08/02 11:17:53;;;;;;;3.20;2.30;;;20.40;99.90;;;;;;4987278;28;20030;-83
2023/08/02 11:20:24;;;;;;;4.65;2.85;;;20.50;99.90;;;;;;4997239;28;20022;-84
2023/08/02 11:22:49;;;;;;;3.50;3.10;;;20.60;99.90;;;;;;5001426;28;20402;-84
2023/08/02 11:25:19;;;;;;;3.17;2.97;;;20.60;99.90;;;;;;4994235;28;20031;-81
2023/08/02 11:27:45;;;;;;;3.47;3.17;;;20.70;99.90;;;;;;4980254;28;20647;-83
2023/08/02 11:30:11;;;;;;;4.07;2.70;;;20.70;99.90;;;;;;4996095;28;20018;-83
2023/08/02 11:32:44;;;;;;;3.00;2.70;;;20.80;99.90;;;;;;4979552;28;20439;-83
2023/08/02 11:35:18;;;;;;;3.30;2.60;;;20.90;99.90;;;;;;4996968;28;20026;-85
2023/08/02 11:37:44;;;;;;;3.20;2.20;;;21.00;99.90;;;;;;4979115;28;20520;-83
2023/08/02 11:40:12;;;;;;;4.13;2.33;;;21.10;99.90;;;;;;4998351;28;20048;-83
2023/08/02 11:42:53;;;;;;;3.22;1.90;;;21.20;99.90;;;;;;4997970;28;20034;-84
2023/08/02 11:45:33;;;;;;;1.98;1.60;;;21.20;99.90;;;;;;4977494;28;20083;-83
2023/08/02 11:48:00;;;;;;;1.63;1.52;;;21.30;99.90;;;;;;4999089;28;20025;-84
2023/08/02 11:50:27;;;;;;;1.65;1.55;;;21.20;99.90;;;;;;4999046;28;20025;-84
2023/08/02 11:53:05;;;;;;;1.83;1.73;;;21.20;99.90;;;;;;4980900;28;20026;-84
2023/08/02 11:55:31;;;;;;;3.85;1.95;;;21.20;99.90;;;;;;4996187;28;20018;-83
2023/08/02 11:57:57;;;;;;;2.58;1.83;;;21.20;99.90;;;;;;4984707;28;20558;-84
2023/08/02 12:00:23;;;;;;;2.25;1.80;;;21.30;99.90;;;;;;5000788;28;20565;-84
2023/08/02 12:02:49;;;;;;;4.07;1.60;;;21.30;99.90;;;;;;4979429;28;20028;-82
2023/08/02 12:05:21;;;;;;;1.60;1.40;;;21.30;99.90;;;;;;4993915;28;20034;-83
2023/08/02 12:07:47;;;;;;;1.40;1.40;;;21.00;99.90;;;;;;4997735;28;20108;-83
2023/08/02 12:10:43;;;;;;;3.05;1.42;;;21.00;99.90;;;;;;5000243;28;20097;-82
2023/08/02 12:13:16;;;;;;;1.70;1.60;;;21.00;99.90;;;;;;4984438;28;20053;-83
2023/08/02 12:15:57;;;;;;;2.30;1.25;;;21.00;99.90;;;;;;4998388;28;20061;-82
2023/08/02 12:18:23;;;;;;;1.83;1.50;;;21.10;99.90;;;;;;4997377;28;20896;-82
2023/08/02 12:20:48;;;;;;;4.78;1.85;;;21.20;99.90;;;;;;4995915;28;20038;-82
2023/08/02 12:23:35;;;;;;;4.88;1.52;;;21.30;99.90;;;;;;4993766;28;20054;-82
2023/08/02 12:26:01;;;;;;;4.07;1.83;;;21.20;99.90;;;;;;4976677;28;20018;-83
2023/08/02 12:28:45;;;;;;;3.92;1.38;;;21.20;99.90;;;;;;4985847;28;20339;-80
2023/08/02 12:31:12;;;;;;;7.55;1.40;;;20.90;99.90;;;;;;4987448;28;20123;-82
2023/08/02 12:33:37;;;;;;;1.30;1.20;;;20.90;99.90;;;;;;4992551;28;20030;-82
2023/08/02 12:36:04;;;;;;;5.00;1.80;;;20.80;99.90;;;;;;4996794;28;20386;-83
2023/08/02 12:38:30;;;;;;;1.67;1.58;;;20.90;99.90;;;;;;4994986;28;20038;-83
2023/08/02 12:41:00;;;;;;;3.72;1.30;;;21.00;99.90;;;;;;4997194;28;20036;-84
2023/08/02 12:43:29;;;;;;;3.35;1.77;;;21.20;99.90;;;;;;4997855;28;20377;-83
2023/08/02 12:45:54;;;;;;;2.20;1.73;;;21.20;99.90;;;;;;5003634;28;20022;-83
2023/08/02 12:48:20;;;;;;;4.32;1.40;;;21.30;99.90;;;;;;4998983;28;20573;-84